Bei Facebook empfehlenBei Twitter postenGoogle plusPinterest

Das Wetter im Erzgebirge am 19.04.2016

Wetter und Klima am 19.04.2016 Holzhau im Erzgebirge (630m ü.NN)
Letzte gemessene Temperatur und Uhrzeit der Messung23:45:00 Uhr3.60 °C
Temperatur (Maximum / Höchstwert) und Uhrzeit der Messung10:15:00 Uhr9.30 °C
Temperatur (Minimum / Tiefstwert) und Uhrzeit der Messung05:30:00-1.60 °C
Errechneter Absolutwert der Temperaturschwankungen zwischen Tmin und Tmax des Tages10.90 K
Errechnete Tagesmitteltemperatur4.28125 °C
Gesamt - Niederschlag des Tages (in flüssiger Form)0.00 Liter / m²
Luftdruck (Maximum / Höchstwert) und Zeitpunkt der Messung23:30:00 Uhr1020.10 hPa
Luftdruck (Minimum / Tiefstwert) und Zeitpunkt der Messung02:45:00 Uhr1016.60 hPa
Errechneter Absolutwert der Luftdruckschwankungen des Tages3.50 hPa
Höchste gemessene Windgeschwindigkeit und Uhrzeit der Messung23:45:00 Uhr0.00 km/h
Errechnete Windhäufigkeit in Relation zu den Messwerten des Tages0.00000 %
Niedrigste Windkühle (Windchill) und Zeitpunkt der Messung05:30:00 Uhr-1.60 °C
Taupunkt (Maximum / Höchstwert) und Uhrzeit der Messung09:00:00 Uhr4.30 °C
Taupunkt (Minimum / Tiefstwert) und Uhrzeit der Messung05:30:00-3.20 °C
Anzahl der automatisch eingelesenen Messwerte 96

Detaillierte Wetter- und Klima- Messwerte für den 19.04.2016 in Holzhau im Erzgebirge (630m ü.NN)
ZeitTemperaturLuftdruckRel. LuftfeuchteWindWindrichtungWindchillTaupunktNiederschlag l/m²
23:45:003.60 °C1019.90 hPa79.00 %0.30 °C 
23:30:003.80 °C1020.10 hPa79.00 %0.50 °C 
23:15:004.10 °C1019.90 hPa80.00 %1.00 °C 
23:00:004.10 °C1019.70 hPa81.00 %1.10 °C 
22:45:004.10 °C1019.60 hPa81.00 %1.10 °C 
22:30:004.20 °C1019.60 hPa82.00 %1.40 °C 
22:15:004.10 °C1019.30 hPa83.00 %1.50 °C 
22:00:004.00 °C1019.20 hPa83.00 %1.40 °C 
21:45:003.90 °C1019.00 hPa83.00 %1.30 °C 
21:30:003.80 °C1018.90 hPa82.00 %1.00 °C 
21:15:003.70 °C1018.70 hPa82.00 %0.90 °C 
21:00:003.40 °C1018.60 hPa81.00 %0.50 °C 
20:45:003.20 °C1018.50 hPa80.00 %0.10 °C 
20:30:003.20 °C1018.50 hPa79.00 %-0.10 °C 
20:15:003.40 °C1018.30 hPa78.00 %-0.10 °C 
20:00:003.90 °C1018.30 hPa77.00 %0.20 °C 
19:45:004.30 °C1018.20 hPa76.00 %0.50 °C 
19:30:004.90 °C1018.20 hPa76.00 %1.00 °C 
19:15:005.30 °C1017.90 hPa75.00 %1.20 °C 
19:00:005.80 °C1018.10 hPa74.00 %1.50 °C 
18:45:005.90 °C1017.90 hPa74.00 %1.60 °C 
18:30:006.30 °C1017.80 hPa73.00 %1.80 °C 
18:15:006.80 °C1017.70 hPa72.00 %2.10 °C 
18:00:006.90 °C1017.80 hPa71.00 %2.00 °C 
17:45:007.40 °C1017.80 hPa70.00 %2.30 °C 
17:30:007.20 °C1017.80 hPa71.00 %2.30 °C 
17:15:007.30 °C1017.80 hPa69.00 %2.00 °C 
17:00:007.60 °C1017.90 hPa69.00 %2.30 °C 
16:45:007.60 °C1018.10 hPa70.00 %2.50 °C 
16:30:007.50 °C1018.10 hPa71.00 %2.60 °C 
16:15:007.60 °C1018.10 hPa69.00 %2.30 °C 
16:00:008.10 °C1018.10 hPa69.00 %2.80 °C 
15:45:008.10 °C1018.10 hPa71.00 %3.20 °C 
15:30:007.80 °C1018.00 hPa72.00 %3.10 °C 
15:15:007.30 °C1018.10 hPa71.00 %2.40 °C 
15:00:007.30 °C1018.00 hPa69.00 %2.00 °C 
14:45:007.80 °C1017.70 hPa69.00 %2.50 °C 
14:30:007.80 °C1017.70 hPa68.00 %2.30 °C 
14:15:007.50 °C1017.80 hPa67.00 %1.80 °C 
14:00:007.60 °C1017.80 hPa65.00 %1.50 °C 
13:45:008.10 °C1017.70 hPa63.00 %1.50 °C 
13:30:009.10 °C1017.70 hPa64.00 %2.70 °C 
13:15:008.70 °C1017.80 hPa67.00 %2.90 °C 
13:00:008.10 °C1017.70 hPa68.00 %2.60 °C 
12:45:008.60 °C1017.70 hPa67.00 %2.80 °C 
12:30:008.40 °C1017.60 hPa69.00 %3.10 °C 
12:15:007.90 °C1017.60 hPa67.00 %2.20 °C 
12:00:008.40 °C1017.60 hPa65.00 %2.20 °C 
11:45:008.60 °C1017.40 hPa64.00 %2.20 °C 
11:30:009.10 °C1017.30 hPa65.00 %2.90 °C 
11:15:008.90 °C1017.40 hPa65.00 %2.70 °C 
11:00:008.70 °C1017.40 hPa65.00 %2.50 °C 
10:45:008.90 °C1017.50 hPa65.00 %2.70 °C 
10:30:009.20 °C1017.50 hPa66.00 %3.20 °C 
10:15:009.30 °C1017.30 hPa67.00 %3.50 °C 
10:00:008.90 °C1017.30 hPa70.00 %3.70 °C 
09:45:008.30 °C1017.20 hPa72.00 %3.60 °C 
09:30:007.90 °C1017.40 hPa73.00 %3.40 °C 
09:15:007.70 °C1017.20 hPa78.00 %4.10 °C 
09:00:007.50 °C1017.40 hPa80.00 %4.30 °C 
08:45:006.40 °C1017.40 hPa84.00 %3.90 °C 
08:30:005.40 °C1017.50 hPa88.00 %3.60 °C 
08:15:004.40 °C1017.40 hPa90.00 %2.90 °C 
08:00:003.60 °C1017.30 hPa91.00 %2.30 °C 
07:45:003.10 °C1017.10 hPa92.00 %1.90 °C 
07:30:002.30 °C1017.40 hPa92.00 %1.10 °C 
07:15:001.60 °C1017.50 hPa92.00 %0.40 °C 
07:00:000.90 °C1017.60 hPa91.00 %-0.40 °C 
06:45:000.20 °C1017.40 hPa91.00 %-1.10 °C 
06:30:00-0.20 °C1017.30 hPa91.00 %-1.60 °C 
06:15:00-0.60 °C1017.20 hPa91.00 %-2.00 °C 
06:00:00-1.10 °C1016.90 hPa91.00 %-2.50 °C 
05:45:00-1.40 °C1017.00 hPa90.00 %-3.00 °C 
05:30:00-1.60 °C1016.90 hPa90.00 %-3.20 °C 
05:15:00-1.50 °C1016.90 hPa90.00 %-3.10 °C 
05:00:00-1.40 °C1016.80 hPa90.00 %-3.00 °C 
04:45:00-1.20 °C1016.90 hPa90.00 %-2.80 °C 
04:30:00-1.30 °C1016.90 hPa89.00 %-3.10 °C 
04:15:00-1.40 °C1017.00 hPa89.00 %-3.20 °C 
04:00:00-1.40 °C1016.80 hPa89.00 %-3.20 °C 
03:45:00-1.20 °C1016.80 hPa89.00 %-3.00 °C 
03:30:00-0.90 °C1016.80 hPa89.00 %-2.70 °C 
03:15:00-0.70 °C1016.70 hPa89.00 %-2.50 °C 
03:00:00-0.50 °C1016.80 hPa88.00 %-2.40 °C 
02:45:00-0.10 °C1016.60 hPa88.00 %-2.00 °C 
02:30:000.10 °C1016.70 hPa89.00 %-1.50 °C 
02:15:000.30 °C1016.60 hPa89.00 %-1.30 °C 
02:00:000.30 °C1016.70 hPa89.00 %-1.30 °C 
01:45:000.30 °C1016.70 hPa88.00 %-1.40 °C 
01:30:000.30 °C1016.60 hPa88.00 %-1.40 °C 
01:15:000.20 °C1016.80 hPa88.00 %-1.50 °C 
01:00:000.10 °C1016.70 hPa88.00 %-1.60 °C 
00:45:000.00 °C1016.60 hPa87.00 %-2.10 °C 
00:30:00-0.10 °C1016.70 hPa87.00 %-2.20 °C 
00:15:00-0.20 °C1016.90 hPa87.00 %-2.30 °C 
00:00:00-0.20 °C1016.80 hPa86.00 %-2.50 °C 

Permanenter Link zu dieser Seite: Wetter im Erzgebirge am 19.04.2016
Performance-Info: Die Erstellung der Seite / Statistik(en) / Tabelle(n) erforderte 5 Datenbankserver-Abfrage(n) und dauerte 69 Millisekunden. (Dieser Messwert ist von der Gesamt-Auslastung des Servers abhängig.)
Erzgebirge - Wetter | Erzgebirge - Wetter (Mobilgeräte) | Komplette Klimadatenbank